createdAt,value
2019-01-30T00:01:11.024Z,13.64
2019-01-30T00:03:38.752Z,13.63
2019-01-30T00:06:06.515Z,13.56
2019-01-30T00:08:34.279Z,13.62
2019-01-30T00:11:02.101Z,13.61
2019-01-30T00:13:29.858Z,13.36
2019-01-30T00:15:57.862Z,13.50
2019-01-30T00:18:25.608Z,13.52
2019-01-30T00:20:53.410Z,12.90
2019-01-30T00:23:21.281Z,13.44
2019-01-30T00:25:49.007Z,13.31
2019-01-30T00:28:16.745Z,13.03
2019-01-30T00:30:44.486Z,12.97
2019-01-30T00:33:12.237Z,13.13
2019-01-30T00:35:39.972Z,13.04
2019-01-30T00:38:07.992Z,12.84
2019-01-30T00:40:35.732Z,12.94
2019-01-30T00:43:03.464Z,13.03
2019-01-30T00:45:31.288Z,12.93
2019-01-30T00:47:59.014Z,13.02
2019-01-30T00:50:26.738Z,12.92
2019-01-30T00:52:54.521Z,12.77
2019-01-30T00:55:22.280Z,12.80
2019-01-30T00:57:50.026Z,12.87
2019-01-30T01:00:18.916Z,11.83
2019-01-30T01:02:46.712Z,12.84
2019-01-30T01:05:14.509Z,12.75
2019-01-30T01:07:42.276Z,12.92
2019-01-30T01:10:11.010Z,12.93
2019-01-30T01:12:38.737Z,12.82
2019-01-30T01:15:07.541Z,12.38
2019-01-30T01:17:35.279Z,12.84
2019-01-30T01:20:03.035Z,12.95
2019-01-30T01:22:30.856Z,12.95
2019-01-30T01:24:58.904Z,13.02
2019-01-30T01:27:26.665Z,13.01
2019-01-30T01:29:54.394Z,12.95
2019-01-30T01:32:22.213Z,13.04
2019-01-30T01:34:49.984Z,12.96
2019-01-30T01:37:17.716Z,12.87
2019-01-30T01:39:45.820Z,13.07
2019-01-30T01:42:13.585Z,13.13
2019-01-30T01:44:41.347Z,12.92
2019-01-30T01:47:09.097Z,13.02
2019-01-30T01:49:36.820Z,13.15
2019-01-30T01:52:04.604Z,12.93
2019-01-30T01:54:32.408Z,13.15
2019-01-30T01:57:00.152Z,13.15
2019-01-30T01:59:28.180Z,13.09
2019-01-30T02:01:55.914Z,12.08
2019-01-30T02:04:23.749Z,13.09
2019-01-30T02:06:51.482Z,13.07
2019-01-30T02:09:19.215Z,13.04
2019-01-30T02:11:47.003Z,13.04
2019-01-30T02:14:14.897Z,13.14
2019-01-30T02:16:42.638Z,12.21
2019-01-30T02:19:10.609Z,13.15
2019-01-30T02:21:38.377Z,13.23
2019-01-30T02:24:06.132Z,13.13
2019-01-30T02:26:33.903Z,13.04
2019-01-30T02:29:01.639Z,12.97
2019-01-30T02:31:29.380Z,12.99
2019-01-30T02:33:57.473Z,12.88
2019-01-30T02:36:25.201Z,13.01
2019-01-30T02:38:52.964Z,13.04
2019-01-30T02:41:20.903Z,13.03
2019-01-30T02:43:48.653Z,12.96
2019-01-30T02:46:16.468Z,12.86
2019-01-30T02:48:44.205Z,12.94
2019-01-30T02:51:11.976Z,12.94
2019-01-30T02:53:39.740Z,12.88
2019-01-30T02:56:07.753Z,11.74
2019-01-30T02:58:35.490Z,12.60
2019-01-30T03:01:03.750Z,13.02
2019-01-30T03:03:31.491Z,13.02
2019-01-30T03:05:59.240Z,12.74
2019-01-30T03:08:28.088Z,13.04
2019-01-30T03:10:55.820Z,12.87
2019-01-30T03:13:23.569Z,13.02
2019-01-30T03:15:51.337Z,11.61
2019-01-30T03:18:19.393Z,12.90
2019-01-30T03:20:47.600Z,12.86
2019-01-30T03:23:15.374Z,12.97
2019-01-30T03:25:43.186Z,13.01
2019-01-30T03:28:10.948Z,12.99
2019-01-30T03:30:38.677Z,13.05
2019-01-30T03:33:06.438Z,13.02
2019-01-30T03:35:34.301Z,13.05
2019-01-30T03:38:02.048Z,13.04
2019-01-30T03:40:29.881Z,13.02
2019-01-30T03:42:57.628Z,12.84
2019-01-30T03:45:25.403Z,12.89
2019-01-30T03:47:53.662Z,12.83
2019-01-30T03:50:21.483Z,12.96
2019-01-30T03:52:49.618Z,11.91
2019-01-30T03:55:17.385Z,12.90
2019-01-30T03:57:45.184Z,12.84
2019-01-30T04:00:14.354Z,12.93
2019-01-30T04:02:42.093Z,12.84
2019-01-30T04:05:09.835Z,12.86
2019-01-30T04:07:37.684Z,12.79
2019-01-30T04:10:05.698Z,12.78
2019-01-30T04:12:33.440Z,12.77
2019-01-30T04:15:01.291Z,12.78
2019-01-30T04:17:29.041Z,12.76
2019-01-30T04:19:56.795Z,12.71
2019-01-30T04:22:24.529Z,12.69
2019-01-30T04:24:52.253Z,12.93
2019-01-30T04:27:20.003Z,12.78
2019-01-30T04:29:47.745Z,12.84
2019-01-30T04:32:15.478Z,12.66
2019-01-30T04:34:43.217Z,12.72
2019-01-30T04:37:10.968Z,12.51
2019-01-30T04:39:38.701Z,12.57
2019-01-30T04:42:06.466Z,12.70
2019-01-30T04:44:34.508Z,12.58
2019-01-30T04:47:02.299Z,12.64
2019-01-30T04:49:30.142Z,12.66
2019-01-30T04:51:57.991Z,12.37
2019-01-30T04:54:25.721Z,12.60
2019-01-30T04:56:53.472Z,12.40
2019-01-30T04:59:21.205Z,12.43
2019-01-30T05:01:50.055Z,12.59
2019-01-30T05:04:18.089Z,12.47
2019-01-30T05:06:45.876Z,12.31
2019-01-30T05:09:13.609Z,12.48
2019-01-30T05:11:41.386Z,12.71
2019-01-30T05:14:09.113Z,12.54
2019-01-30T05:16:36.857Z,12.61
2019-01-30T05:19:04.857Z,11.70
2019-01-30T05:21:32.592Z,12.38
2019-01-30T05:24:00.346Z,12.54
2019-01-30T05:26:28.102Z,12.73
2019-01-30T05:28:56.082Z,12.73
2019-01-30T05:31:23.839Z,12.69
2019-01-30T05:33:51.565Z,12.83
2019-01-30T05:36:19.311Z,12.72
2019-01-30T05:38:47.386Z,12.69
2019-01-30T05:41:15.184Z,12.77
2019-01-30T05:43:43.025Z,12.20
2019-01-30T05:46:10.760Z,12.64
2019-01-30T05:48:38.496Z,12.68
2019-01-30T05:51:06.443Z,12.78
2019-01-30T05:53:34.652Z,12.83
2019-01-30T05:56:02.556Z,12.84
2019-01-30T05:58:30.435Z,12.81
2019-01-30T06:00:58.172Z,12.80
2019-01-30T06:03:26.331Z,12.81
2019-01-30T06:05:54.152Z,12.69
2019-01-30T06:08:21.979Z,12.84
2019-01-30T06:10:49.822Z,12.87
2019-01-30T06:13:17.647Z,12.92
2019-01-30T06:15:45.409Z,12.84
2019-01-30T06:18:13.144Z,12.82
2019-01-30T06:20:40.899Z,12.91
2019-01-30T06:23:08.927Z,12.93
2019-01-30T06:25:37.048Z,12.94
2019-01-30T06:28:05.266Z,13.00
2019-01-30T06:30:33.208Z,12.99
2019-01-30T06:33:00.952Z,12.90
2019-01-30T06:35:28.701Z,13.01
2019-01-30T06:37:56.457Z,13.01
2019-01-30T06:40:25.332Z,13.07
2019-01-30T06:42:53.086Z,13.05
2019-01-30T06:45:20.855Z,13.00
2019-01-30T06:47:48.678Z,12.96
2019-01-30T06:50:16.436Z,13.03
2019-01-30T06:52:44.179Z,13.06
2019-01-30T06:55:12.124Z,13.18
2019-01-30T06:57:39.864Z,13.18
2019-01-30T07:00:21.065Z,13.15
2019-01-30T07:02:48.816Z,13.14
2019-01-30T07:05:16.538Z,13.09
2019-01-30T07:07:44.293Z,12.90
2019-01-30T07:10:13.683Z,12.96
2019-01-30T07:12:41.416Z,12.96
2019-01-30T07:15:09.234Z,12.96
2019-01-30T07:17:36.966Z,12.94
2019-01-30T07:20:05.253Z,12.89
2019-01-30T07:22:32.989Z,12.87
2019-01-30T07:25:00.849Z,12.91
2019-01-30T07:27:28.584Z,12.89
2019-01-30T07:29:56.706Z,12.77
2019-01-30T07:32:24.520Z,12.89
2019-01-30T07:34:52.288Z,12.88
2019-01-30T07:37:20.027Z,12.90
2019-01-30T07:39:48.105Z,12.94
2019-01-30T07:42:18.346Z,12.89
2019-01-30T07:44:50.843Z,12.92
2019-01-30T07:47:18.524Z,12.96
2019-01-30T07:49:46.355Z,13.08
2019-01-30T07:52:15.356Z,13.04
2019-01-30T07:54:43.208Z,13.00
2019-01-30T07:57:10.924Z,13.04
2019-01-30T07:59:39.089Z,12.96
2019-01-30T08:02:06.868Z,12.97
2019-01-30T08:04:34.612Z,13.15
2019-01-30T08:07:03.178Z,13.13
2019-01-30T08:09:31.122Z,13.07
2019-01-30T08:11:58.867Z,12.14
2019-01-30T08:14:26.636Z,13.14
2019-01-30T08:16:54.398Z,13.10
2019-01-30T08:19:22.366Z,13.15
2019-01-30T08:21:50.121Z,13.15
2019-01-30T08:24:17.910Z,13.10
2019-01-30T08:26:46.136Z,13.17
2019-01-30T08:29:14.023Z,13.31
2019-01-30T08:31:42.200Z,13.26
2019-01-30T08:34:10.388Z,13.27
2019-01-30T08:36:38.126Z,13.25
2019-01-30T08:39:07.245Z,13.24
2019-01-30T08:41:35.183Z,13.22
2019-01-30T08:44:04.805Z,13.17
2019-01-30T08:46:32.544Z,13.22
2019-01-30T08:49:00.657Z,13.19
2019-01-30T08:51:28.485Z,13.29
2019-01-30T08:53:56.550Z,13.24
2019-01-30T08:56:24.421Z,13.25
2019-01-30T08:58:52.157Z,13.28
2019-01-30T09:01:19.889Z,13.29
2019-01-30T09:03:47.848Z,13.24
2019-01-30T09:06:15.952Z,13.28
2019-01-30T09:08:43.865Z,13.24
2019-01-30T09:11:13.709Z,13.28
2019-01-30T09:13:41.475Z,13.36
2019-01-30T09:16:09.260Z,13.34
2019-01-30T09:18:38.448Z,13.32
2019-01-30T09:21:06.188Z,13.29
2019-01-30T09:23:33.945Z,11.88
2019-01-30T09:26:01.981Z,13.32
2019-01-30T09:28:29.734Z,13.25
2019-01-30T09:30:57.470Z,13.36
2019-01-30T09:33:26.307Z,13.32
2019-01-30T09:35:54.480Z,12.85
2019-01-30T09:38:22.280Z,13.28
2019-01-30T09:40:50.052Z,13.38
2019-01-30T09:43:17.905Z,13.32
2019-01-30T09:45:45.645Z,13.39
2019-01-30T09:48:13.481Z,13.39
2019-01-30T09:50:41.501Z,13.34
2019-01-30T09:53:10.786Z,13.36
2019-01-30T09:55:38.701Z,13.36
2019-01-30T09:58:06.569Z,13.31
2019-01-30T10:00:35.140Z,13.33
2019-01-30T10:03:03.400Z,13.29
2019-01-30T10:05:31.130Z,13.44
2019-01-30T10:07:58.984Z,13.41
2019-01-30T10:10:27.864Z,13.35
2019-01-30T10:12:55.764Z,13.43
2019-01-30T10:15:27.165Z,13.47
2019-01-30T10:17:54.988Z,13.38
2019-01-30T10:20:23.592Z,13.38
2019-01-30T10:22:51.391Z,13.56
2019-01-30T10:25:19.136Z,13.41
2019-01-30T10:27:47.152Z,13.42
2019-01-30T10:30:16.557Z,13.38
2019-01-30T10:32:44.344Z,13.39
2019-01-30T10:35:12.522Z,13.37
2019-01-30T10:37:40.292Z,13.43
2019-01-30T10:40:09.736Z,13.43
2019-01-30T10:42:37.578Z,13.44
2019-01-30T10:45:05.836Z,13.52
2019-01-30T10:47:33.566Z,13.54
2019-01-30T10:50:01.319Z,13.54
2019-01-30T10:52:29.065Z,13.56
2019-01-30T10:54:56.837Z,13.63
2019-01-30T10:57:24.587Z,13.55
2019-01-30T10:59:52.331Z,13.61
2019-01-30T11:02:20.081Z,13.64
2019-01-30T11:04:47.812Z,13.57
2019-01-30T11:07:15.662Z,13.61
2019-01-30T11:09:45.389Z,13.63
2019-01-30T11:12:17.600Z,13.72
2019-01-30T11:14:46.004Z,13.68
2019-01-30T11:17:13.778Z,13.71
2019-01-30T11:19:41.516Z,13.71
2019-01-30T11:22:09.286Z,13.72
2019-01-30T11:24:37.160Z,13.69
2019-01-30T11:27:05.258Z,13.62
2019-01-30T11:29:33.028Z,13.62
2019-01-30T11:32:01.139Z,13.69
2019-01-30T11:34:28.893Z,13.73
2019-01-30T11:36:56.653Z,13.78
2019-01-30T11:39:24.487Z,13.71
2019-01-30T11:41:52.332Z,13.71
2019-01-30T11:44:20.230Z,13.73
2019-01-30T11:46:48.044Z,13.80
2019-01-30T11:49:15.824Z,13.73
2019-01-30T11:51:43.799Z,13.83
2019-01-30T11:54:11.620Z,13.73
2019-01-30T11:56:39.439Z,13.73
2019-01-30T11:59:07.188Z,13.75
2019-01-30T12:01:34.930Z,13.78
2019-01-30T12:04:02.739Z,13.70
2019-01-30T12:06:30.503Z,13.71
2019-01-30T12:08:58.247Z,13.76
2019-01-30T12:11:26.004Z,13.70
2019-01-30T12:13:53.731Z,13.70
2019-01-30T12:16:21.525Z,13.75
2019-01-30T12:18:49.616Z,13.69
2019-01-30T12:21:17.437Z,13.77
2019-01-30T12:23:45.324Z,13.67
2019-01-30T12:26:13.078Z,13.69
2019-01-30T12:28:44.903Z,13.79
2019-01-30T12:31:12.669Z,13.80
2019-01-30T12:33:40.435Z,13.79
2019-01-30T12:36:08.361Z,13.78
2019-01-30T12:38:36.109Z,13.78
2019-01-30T12:41:03.876Z,13.79
2019-01-30T12:43:31.636Z,13.79
2019-01-30T12:45:59.633Z,13.79
2019-01-30T12:48:27.516Z,13.81
2019-01-30T12:50:55.380Z,13.83
2019-01-30T12:53:23.130Z,13.90
2019-01-30T12:55:50.882Z,13.11
2019-01-30T12:58:18.884Z,13.83
2019-01-30T13:00:46.825Z,13.87
2019-01-30T13:03:14.702Z,13.82
2019-01-30T13:05:42.455Z,13.90
2019-01-30T13:08:10.286Z,13.84
2019-01-30T13:10:55.700Z,13.81
2019-01-30T13:13:24.533Z,13.81
2019-01-30T13:15:52.327Z,13.85
2019-01-30T13:18:20.196Z,13.87
2019-01-30T13:20:48.123Z,13.93
2019-01-30T13:23:15.954Z,13.95
2019-01-30T13:25:44.129Z,13.90
2019-01-30T13:28:11.877Z,13.64
2019-01-30T13:30:40.187Z,13.96
2019-01-30T13:33:08.539Z,13.97
2019-01-30T13:35:36.255Z,14.01
2019-01-30T13:38:04.280Z,13.94
2019-01-30T13:40:42.219Z,13.94
2019-01-30T13:43:10.020Z,14.01
2019-01-30T13:45:37.829Z,13.72
2019-01-30T13:48:07.278Z,13.94
2019-01-30T13:50:35.141Z,13.90
2019-01-30T13:53:02.899Z,13.89
2019-01-30T13:55:30.659Z,13.87
2019-01-30T13:57:58.637Z,13.52
2019-01-30T14:00:28.078Z,14.00
2019-01-30T14:02:55.876Z,13.91
2019-01-30T14:05:25.478Z,13.91
2019-01-30T14:07:53.416Z,13.91
2019-01-30T14:10:21.150Z,13.87
2019-01-30T14:12:48.895Z,13.89
2019-01-30T14:15:17.513Z,13.84
2019-01-30T14:18:07.702Z,13.85
2019-01-30T14:20:35.784Z,13.82
2019-01-30T14:23:03.564Z,13.89
2019-01-30T14:25:31.371Z,13.87
2019-01-30T14:28:00.426Z,13.79
2019-01-30T14:30:29.532Z,13.82
2019-01-30T14:32:58.733Z,12.97
2019-01-30T14:35:27.440Z,13.82
2019-01-30T14:37:55.243Z,13.85
2019-01-30T14:40:22.999Z,13.45
2019-01-30T14:42:50.757Z,13.80
2019-01-30T14:45:35.920Z,13.84
2019-01-30T14:48:03.716Z,13.82
2019-01-30T14:50:31.527Z,13.82
2019-01-30T14:52:59.453Z,13.88
2019-01-30T14:55:27.513Z,13.82
2019-01-30T14:57:55.255Z,13.87
2019-01-30T15:00:26.793Z,13.87
2019-01-30T15:02:54.692Z,13.93
2019-01-30T15:05:22.915Z,13.89
2019-01-30T15:07:50.805Z,13.84
2019-01-30T15:10:20.160Z,13.83
2019-01-30T15:12:47.925Z,13.85
2019-01-30T15:15:16.667Z,13.87
2019-01-30T15:17:45.664Z,13.85
2019-01-30T15:20:17.379Z,13.85
2019-01-30T15:22:45.245Z,13.83
2019-01-30T15:25:13.818Z,13.87
2019-01-30T15:27:42.255Z,13.76
2019-01-30T15:30:11.517Z,12.90
2019-01-30T15:32:39.354Z,13.81
2019-01-30T15:35:07.331Z,13.78
2019-01-30T15:37:35.060Z,13.75
2019-01-30T15:40:02.838Z,13.59
2019-01-30T15:42:30.639Z,13.76
2019-01-30T15:44:58.569Z,13.70
2019-01-30T15:47:26.339Z,13.74
2019-01-30T15:49:54.076Z,13.76
2019-01-30T15:52:22.080Z,13.77
2019-01-30T15:54:49.815Z,13.81
2019-01-30T15:57:17.572Z,13.81
2019-01-30T15:59:45.409Z,13.82
2019-01-30T16:02:13.152Z,13.84
2019-01-30T16:04:41.109Z,13.84
2019-01-30T16:07:08.839Z,13.80
2019-01-30T16:09:36.585Z,13.71
2019-01-30T16:12:04.309Z,13.72
2019-01-30T16:14:32.073Z,13.76
2019-01-30T16:16:59.812Z,13.80
2019-01-30T16:19:27.692Z,13.76
2019-01-30T16:21:55.436Z,13.78
2019-01-30T16:24:23.500Z,13.78
2019-01-30T16:26:51.310Z,13.78
2019-01-30T16:29:19.646Z,13.65
2019-01-30T16:31:47.461Z,13.70
2019-01-30T16:34:15.208Z,13.76
2019-01-30T16:36:42.958Z,13.82
2019-01-30T16:39:10.753Z,13.72
2019-01-30T16:41:38.490Z,13.69
2019-01-30T16:44:06.261Z,13.56
2019-01-30T16:46:34.023Z,13.67
2019-01-30T16:49:01.774Z,13.71
2019-01-30T16:51:29.564Z,13.67
2019-01-30T16:53:57.337Z,13.63
2019-01-30T16:56:25.352Z,13.68
2019-01-30T16:58:53.105Z,13.68
2019-01-30T17:01:20.857Z,13.64
2019-01-30T17:03:48.631Z,13.67
2019-01-30T17:06:16.385Z,13.70
2019-01-30T17:08:44.143Z,13.71
2019-01-30T17:11:11.885Z,13.24
2019-01-30T17:13:39.620Z,13.70
2019-01-30T17:16:07.372Z,13.62
2019-01-30T17:18:35.168Z,13.66
2019-01-30T17:21:02.912Z,13.61
2019-01-30T17:23:30.658Z,13.65
2019-01-30T17:25:58.579Z,13.59
2019-01-30T17:28:26.356Z,13.72
2019-01-30T17:30:58.849Z,13.67
2019-01-30T17:33:26.656Z,12.29
2019-01-30T17:35:54.484Z,13.75
2019-01-30T17:38:25.058Z,13.70
2019-01-30T17:40:52.112Z,13.67
2019-01-30T17:43:19.928Z,13.64
2019-01-30T17:45:47.779Z,13.70
2019-01-30T17:48:15.543Z,13.62
2019-01-30T17:50:43.322Z,13.64
2019-01-30T17:53:11.341Z,13.72
2019-01-30T17:55:39.117Z,13.67
2019-01-30T17:58:06.852Z,13.69
2019-01-30T18:00:46.752Z,13.53
2019-01-30T18:03:15.099Z,13.68
2019-01-30T18:05:42.909Z,13.77
2019-01-30T18:08:11.575Z,13.68
2019-01-30T18:10:39.539Z,13.65
2019-01-30T18:13:07.424Z,13.65
2019-01-30T18:15:35.156Z,13.71
2019-01-30T18:18:02.924Z,13.71
2019-01-30T18:20:30.647Z,13.65
2019-01-30T18:22:58.628Z,13.71
2019-01-30T18:25:26.373Z,13.78
2019-01-30T18:27:54.155Z,13.70
2019-01-30T18:30:21.992Z,13.74
2019-01-30T18:32:49.892Z,13.83
2019-01-30T18:35:17.632Z,13.61
2019-01-30T18:37:45.412Z,13.71
2019-01-30T18:40:14.301Z,13.68
2019-01-30T18:42:42.064Z,13.65
2019-01-30T18:45:10.580Z,13.43
2019-01-30T18:47:38.327Z,13.53
2019-01-30T18:50:07.338Z,13.49
2019-01-30T18:52:35.093Z,13.50
2019-01-30T18:55:02.994Z,13.54
2019-01-30T18:57:30.769Z,13.55
2019-01-30T18:59:58.653Z,13.58
2019-01-30T19:02:26.426Z,13.51
2019-01-30T19:04:54.162Z,13.58
2019-01-30T19:07:22.039Z,13.58
2019-01-30T19:09:49.830Z,13.56
2019-01-30T19:12:17.679Z,13.60
2019-01-30T19:14:45.490Z,13.56
2019-01-30T19:17:13.225Z,13.53
2019-01-30T19:19:41.047Z,13.53
2019-01-30T19:22:10.335Z,13.63
2019-01-30T19:24:40.875Z,13.59
2019-01-30T19:27:08.678Z,13.45
2019-01-30T19:29:36.573Z,13.55
2019-01-30T19:32:04.304Z,13.57
2019-01-30T19:34:32.072Z,13.49
2019-01-30T19:37:03.531Z,13.58
2019-01-30T19:39:29.404Z,13.54
2019-01-30T19:41:57.135Z,13.39
2019-01-30T19:44:25.006Z,13.50
2019-01-30T19:46:52.808Z,13.53
2019-01-30T19:49:20.631Z,13.55
2019-01-30T19:51:48.502Z,13.50
2019-01-30T19:54:16.271Z,13.51
2019-01-30T19:56:44.020Z,13.51
2019-01-30T19:59:17.291Z,13.53
2019-01-30T20:01:41.219Z,13.52
2019-01-30T20:04:08.950Z,13.50
2019-01-30T20:06:36.692Z,13.52
2019-01-30T20:09:07.893Z,13.52
2019-01-30T20:11:35.641Z,13.54
2019-01-30T20:14:03.644Z,13.50
2019-01-30T20:16:31.409Z,13.50
2019-01-30T20:18:59.152Z,13.48
2019-01-30T20:21:26.968Z,13.50
2019-01-30T20:23:54.691Z,13.46
2019-01-30T20:26:22.617Z,12.69
2019-01-30T20:28:50.378Z,13.47
2019-01-30T20:31:18.126Z,13.41
2019-01-30T20:33:45.940Z,13.42
2019-01-30T20:36:13.673Z,13.44
2019-01-30T20:38:41.477Z,13.48
2019-01-30T20:41:09.223Z,13.48
2019-01-30T20:43:37.057Z,13.45
2019-01-30T20:46:04.897Z,13.39
2019-01-30T20:48:32.662Z,13.48
2019-01-30T20:51:00.465Z,13.51
2019-01-30T20:53:28.203Z,13.43
2019-01-30T20:55:56.090Z,13.49
2019-01-30T20:58:23.844Z,13.43
2019-01-30T21:00:51.626Z,13.47
2019-01-30T21:03:19.498Z,13.46
2019-01-30T21:05:47.401Z,13.40
2019-01-30T21:08:15.341Z,13.47
2019-01-30T21:10:43.220Z,13.44
2019-01-30T21:13:11.312Z,13.43
2019-01-30T21:15:39.101Z,13.41
2019-01-30T21:18:06.861Z,13.45
2019-01-30T21:20:34.668Z,13.48
2019-01-30T21:23:02.410Z,13.46
2019-01-30T21:25:30.144Z,13.48
2019-01-30T21:27:58.246Z,13.41
2019-01-30T21:35:34.123Z,13.53
2019-01-30T21:38:03.276Z,13.50
2019-01-30T21:40:32.173Z,13.48
2019-01-30T21:42:59.921Z,13.51
2019-01-30T21:45:27.740Z,13.47
2019-01-30T21:47:55.516Z,13.43
2019-01-30T21:50:23.264Z,13.40
2019-01-30T21:52:51.003Z,13.40
2019-01-30T21:55:19.405Z,13.42
2019-01-30T21:57:47.174Z,13.17
2019-01-30T22:00:18.965Z,13.34
2019-01-30T22:02:46.720Z,13.40
2019-01-30T22:05:14.478Z,13.48
2019-01-30T22:07:42.240Z,13.49
2019-01-30T22:10:11.103Z,13.50
2019-01-30T22:12:38.869Z,13.48
2019-01-30T22:15:07.356Z,13.46
2019-01-30T22:17:35.235Z,13.44
2019-01-30T22:20:03.005Z,13.40
2019-01-30T22:22:30.877Z,13.40
2019-01-30T22:24:58.866Z,13.33
2019-01-30T22:27:26.649Z,13.33
2019-01-30T22:29:54.428Z,13.31
2019-01-30T22:32:22.194Z,13.34
2019-01-30T22:34:49.965Z,13.34
2019-01-30T22:37:17.704Z,13.36
2019-01-30T22:39:45.475Z,13.36
2019-01-30T22:42:13.243Z,12.45
2019-01-30T22:44:41.185Z,13.34
2019-01-30T22:47:09.069Z,13.41
2019-01-30T22:49:37.007Z,13.40
2019-01-30T22:52:05.224Z,13.02
2019-01-30T22:54:32.990Z,13.40
2019-01-30T22:57:00.743Z,13.40
2019-01-30T22:59:28.758Z,13.39
2019-01-30T23:01:58.443Z,13.44
2019-01-30T23:04:45.763Z,13.41
2019-01-30T23:07:38.489Z,13.42
2019-01-30T23:10:24.615Z,13.25
2019-01-30T23:13:11.677Z,13.31
2019-01-30T23:15:47.975Z,13.41
2019-01-30T23:18:26.721Z,13.34
2019-01-30T23:20:56.550Z,13.34
2019-01-30T23:23:43.820Z,13.31
2019-01-30T23:26:23.032Z,13.34
2019-01-30T23:28:54.977Z,13.35
2019-01-30T23:31:29.680Z,13.40
2019-01-30T23:34:05.918Z,13.38
2019-01-30T23:36:43.757Z,13.41
2019-01-30T23:39:27.724Z,13.29
2019-01-30T23:42:14.729Z,13.33
2019-01-30T23:44:50.118Z,13.42
2019-01-30T23:47:35.886Z,13.46
2019-01-30T23:50:19.914Z,13.34
2019-01-30T23:53:10.262Z,13.40
2019-01-30T23:56:00.350Z,13.43
2019-01-30T23:58:51.617Z,13.38
